createdAt,value
2023-03-01T00:01:57.399Z,-0.51
2023-03-01T00:04:00.823Z,-0.60
2023-03-01T00:06:03.911Z,-0.62
2023-03-01T00:08:06.770Z,-0.60
2023-03-01T00:10:10.851Z,-0.58
2023-03-01T00:12:13.598Z,-0.65
2023-03-01T00:14:17.296Z,-0.54
2023-03-01T00:16:23.990Z,-0.68
2023-03-01T00:18:26.650Z,-0.72
2023-03-01T00:20:31.207Z,-0.67
2023-03-01T00:22:33.849Z,-0.67
2023-03-01T00:24:36.511Z,-0.70
2023-03-01T00:26:39.385Z,-0.65
2023-03-01T00:28:42.060Z,-0.63
2023-03-01T00:30:44.897Z,-0.60
2023-03-01T00:32:48.961Z,-0.71
2023-03-01T00:34:55.877Z,-0.76
2023-03-01T00:37:05.910Z,-0.77
2023-03-01T00:39:13.336Z,-0.73
2023-03-01T00:41:18.876Z,-0.76
2023-03-01T00:43:21.812Z,-0.78
2023-03-01T00:45:24.959Z,-0.83
2023-03-01T00:47:27.560Z,-0.85
2023-03-01T00:49:31.616Z,-0.88
2023-03-01T00:51:34.559Z,-0.91
2023-03-01T00:53:37.832Z,-0.92
2023-03-01T00:55:40.478Z,-0.94
2023-03-01T00:57:43.094Z,-0.97
2023-03-01T00:59:45.740Z,-0.92
2023-03-01T01:01:48.397Z,-0.93
2023-03-01T01:03:53.282Z,-0.90
2023-03-01T01:05:57.322Z,-0.96
2023-03-01T01:07:59.995Z,-0.95
2023-03-01T01:10:03.008Z,-0.98
2023-03-01T01:12:05.961Z,-1.04
2023-03-01T01:14:08.612Z,-1.05
2023-03-01T01:16:11.335Z,-1.00
2023-03-01T01:18:14.235Z,-1.05
2023-03-01T01:20:16.996Z,-1.06
2023-03-01T01:22:21.001Z,-1.09
2023-03-01T01:24:23.693Z,-1.13
2023-03-01T01:26:29.476Z,-1.13
2023-03-01T01:28:32.666Z,-1.10
2023-03-01T01:30:35.382Z,-1.18
2023-03-01T01:32:38.067Z,-1.19
2023-03-01T01:34:41.351Z,-1.25
2023-03-01T01:36:44.642Z,-1.25
2023-03-01T01:38:48.634Z,-1.31
2023-03-01T01:40:52.285Z,-1.23
2023-03-01T01:42:54.913Z,-1.16
2023-03-01T01:45:33.964Z,-1.21
2023-03-01T01:47:36.901Z,-1.18
2023-03-01T01:49:44.088Z,-1.09
2023-03-01T01:51:49.313Z,-1.12
2023-03-01T01:53:57.952Z,-1.01
2023-03-01T01:56:03.470Z,-0.98
2023-03-01T01:58:08.764Z,-0.96
2023-03-01T02:00:15.074Z,-0.96
2023-03-01T02:02:18.085Z,-0.90
2023-03-01T02:04:21.307Z,-0.83
2023-03-01T02:06:30.351Z,-0.80
2023-03-01T02:08:37.274Z,-0.86
2023-03-01T02:10:42.513Z,-0.82
2023-03-01T02:12:45.189Z,-0.83
2023-03-01T02:14:47.809Z,-0.84
2023-03-01T02:16:51.024Z,-0.83
2023-03-01T02:18:54.510Z,-0.85
2023-03-01T02:21:10.404Z,-0.80
2023-03-01T02:23:13.499Z,-0.78
2023-03-01T02:25:27.608Z,-0.73
2023-03-01T02:27:38.932Z,-0.76
2023-03-01T02:29:44.851Z,-0.71
2023-03-01T02:31:46.590Z,-0.68
2023-03-01T02:33:50.230Z,-0.67
2023-03-01T02:35:54.558Z,-0.73
2023-03-01T02:37:58.062Z,-0.78
2023-03-01T02:40:06.424Z,-0.78
2023-03-01T02:42:11.652Z,-0.78
2023-03-01T02:44:14.544Z,-0.76
2023-03-01T02:46:20.929Z,-0.75
2023-03-01T02:48:23.565Z,-0.76
2023-03-01T02:50:49.153Z,-0.79
2023-03-01T02:53:00.680Z,-0.78
2023-03-01T02:55:06.836Z,-0.81
2023-03-01T02:57:11.156Z,-0.80
2023-03-01T02:59:14.261Z,-0.79
2023-03-01T03:01:18.276Z,-0.83
2023-03-01T03:03:23.263Z,-0.85
2023-03-01T03:05:27.963Z,-0.78
2023-03-01T03:07:30.801Z,-0.69
2023-03-01T03:09:33.450Z,-0.70
2023-03-01T03:11:37.667Z,-0.73
2023-03-01T03:13:48.903Z,-0.75
2023-03-01T03:15:51.688Z,-0.81
2023-03-01T03:17:56.425Z,-0.70
2023-03-01T03:19:59.076Z,-0.74
2023-03-01T03:22:02.780Z,-0.78
2023-03-01T03:24:06.344Z,-0.73
2023-03-01T03:26:08.918Z,-0.71
2023-03-01T03:28:11.593Z,-0.78
2023-03-01T03:30:16.862Z,-0.76
2023-03-01T03:32:19.567Z,-0.75
2023-03-01T03:34:24.215Z,-0.76
2023-03-01T03:36:26.906Z,-0.80
2023-03-01T03:38:29.525Z,-0.72
2023-03-01T03:40:35.368Z,-0.79
2023-03-01T03:42:38.029Z,-0.77
2023-03-01T03:44:40.685Z,-0.82
2023-03-01T03:46:43.312Z,-0.79
2023-03-01T03:48:47.361Z,-0.78
2023-03-01T03:50:53.455Z,-0.73
2023-03-01T03:52:56.129Z,-0.75
2023-03-01T03:54:58.807Z,-0.81
2023-03-01T03:57:01.450Z,-0.79
2023-03-01T03:59:04.273Z,-0.69
2023-03-01T04:01:07.109Z,-0.77
2023-03-01T04:03:10.535Z,-0.70
2023-03-01T04:05:16.145Z,-0.77
2023-03-01T04:07:20.124Z,-0.71
2023-03-01T04:09:22.806Z,-0.79
2023-03-01T04:11:28.227Z,-0.74
2023-03-01T04:13:30.842Z,-0.81
2023-03-01T04:15:34.415Z,-0.79
2023-03-01T04:17:37.186Z,-0.72
2023-03-01T04:19:39.806Z,-0.77
2023-03-01T04:21:42.429Z,-0.67
2023-03-01T04:23:46.400Z,-0.78
2023-03-01T04:25:54.972Z,-0.79
2023-03-01T04:27:57.636Z,-0.79
2023-03-01T04:30:00.216Z,-0.86
2023-03-01T04:32:04.052Z,-0.76
2023-03-01T04:34:06.722Z,-0.76
2023-03-01T04:36:10.767Z,-0.76
2023-03-01T04:38:13.863Z,-0.70
2023-03-01T04:40:18.511Z,-0.77
2023-03-01T04:42:21.303Z,-0.77
2023-03-01T04:44:24.182Z,-0.67
2023-03-01T04:46:27.450Z,-0.63
2023-03-01T04:48:30.233Z,-0.70
2023-03-01T04:50:34.040Z,-0.64
2023-03-01T04:52:36.943Z,-0.66
2023-03-01T04:54:39.570Z,-0.72
2023-03-01T04:56:43.560Z,-0.71
2023-03-01T04:58:47.114Z,-0.67
2023-03-01T05:03:19.144Z,-0.73
2023-03-01T05:05:26.454Z,-0.80
2023-03-01T05:07:29.316Z,-0.73
2023-03-01T05:09:31.941Z,-0.71
2023-03-01T05:11:36.843Z,-0.68
2023-03-01T05:13:42.227Z,-0.71
2023-03-01T05:15:44.846Z,-0.71
2023-03-01T05:17:47.868Z,-0.65
2023-03-01T05:19:50.969Z,-0.71
2023-03-01T05:22:06.040Z,-0.79
2023-03-01T05:24:12.650Z,-0.73
2023-03-01T05:26:39.370Z,-0.74
2023-03-01T05:28:40.569Z,-0.71
2023-03-01T05:30:44.565Z,-0.62
2023-03-01T05:32:50.332Z,-0.75
2023-03-01T05:34:53.201Z,-0.73
2023-03-01T05:36:56.318Z,-0.68
2023-03-01T05:38:59.001Z,-0.57
2023-03-01T05:41:01.701Z,-0.64
2023-03-01T05:43:06.129Z,-0.56
2023-03-01T05:45:10.582Z,-0.62
2023-03-01T05:47:14.603Z,-0.72
2023-03-01T05:49:17.998Z,-0.65
2023-03-01T05:51:20.837Z,-0.61
2023-03-01T05:53:23.531Z,-0.70
2023-03-01T05:55:28.171Z,-0.67
2023-03-01T05:57:31.743Z,-0.63
2023-03-01T05:59:34.498Z,-0.63
2023-03-01T06:01:37.504Z,-0.66
2023-03-01T06:03:41.518Z,-0.59
2023-03-01T06:05:44.790Z,-0.67
2023-03-01T06:07:47.666Z,-0.64
2023-03-01T06:09:50.246Z,-0.68
2023-03-01T06:11:52.957Z,-0.63
2023-03-01T06:13:55.717Z,-0.65
2023-03-01T06:15:58.412Z,-0.63
2023-03-01T06:18:01.060Z,-0.62
2023-03-01T06:20:05.967Z,-0.52
2023-03-01T06:22:09.240Z,-0.50
2023-03-01T06:24:11.880Z,-0.59
2023-03-01T06:26:14.533Z,-0.48
2023-03-01T06:28:17.458Z,-0.55
2023-03-01T06:30:22.626Z,-0.58
2023-03-01T06:32:25.290Z,-0.56
2023-03-01T06:34:28.008Z,-0.46
2023-03-01T06:36:32.453Z,-0.53
2023-03-01T06:38:35.284Z,-0.48
2023-03-01T06:40:37.941Z,-0.52
2023-03-01T06:42:42.711Z,-0.52
2023-03-01T06:44:46.750Z,-0.40
2023-03-01T06:46:49.397Z,-0.34
2023-03-01T06:48:53.419Z,-0.43
2023-03-01T06:50:56.141Z,-0.36
2023-03-01T06:53:00.649Z,-0.47
2023-03-01T06:55:03.920Z,-0.43
2023-03-01T06:57:06.563Z,-0.53
2023-03-01T06:59:09.238Z,-0.63
2023-03-01T07:01:11.916Z,-0.54
2023-03-01T07:03:14.622Z,-0.45
2023-03-01T07:05:17.497Z,-0.73
2023-03-01T07:07:21.000Z,-0.68
2023-03-01T07:09:25.378Z,-0.69
2023-03-01T07:11:28.070Z,-0.63
2023-03-01T07:13:30.940Z,-0.66
2023-03-01T07:15:33.860Z,-0.72
2023-03-01T07:17:36.542Z,-0.71
2023-03-01T07:19:39.196Z,-0.72
2023-03-01T07:21:41.813Z,-0.79
2023-03-01T07:23:45.023Z,-0.59
2023-03-01T07:25:55.006Z,-0.54
2023-03-01T07:27:57.669Z,-0.70
2023-03-01T07:30:00.277Z,-0.60
2023-03-01T07:32:03.018Z,-0.50
2023-03-01T07:34:05.729Z,-0.57
2023-03-01T07:36:09.016Z,-0.52
2023-03-01T07:38:11.752Z,-0.45
2023-03-01T07:40:14.979Z,-0.45
2023-03-01T07:42:19.204Z,-0.48
2023-03-01T07:44:21.989Z,-0.28
2023-03-01T07:46:24.757Z,-0.30
2023-03-01T07:48:27.465Z,0.41
2023-03-01T07:50:30.117Z,0.68
2023-03-01T07:52:32.800Z,0.40
2023-03-01T07:54:35.897Z,0.63
2023-03-01T07:56:38.555Z,1.25
2023-03-01T07:58:44.251Z,1.21
2023-03-01T08:00:46.839Z,0.82
2023-03-01T08:02:49.455Z,1.00
2023-03-01T08:04:52.052Z,1.09
2023-03-01T08:06:55.193Z,1.04
2023-03-01T08:08:59.346Z,1.26
2023-03-01T08:11:03.740Z,0.95
2023-03-01T08:13:06.480Z,1.35
2023-03-01T08:15:11.857Z,1.65
2023-03-01T08:17:15.794Z,2.03
2023-03-01T08:19:18.665Z,2.05
2023-03-01T08:21:21.329Z,1.54
2023-03-01T08:23:24.046Z,2.03
2023-03-01T08:25:26.898Z,1.61
2023-03-01T08:27:29.708Z,1.69
2023-03-01T08:29:32.773Z,1.63
2023-03-01T08:31:39.249Z,2.59
2023-03-01T08:33:42.081Z,2.13
2023-03-01T08:35:44.880Z,3.42
2023-03-01T08:37:47.570Z,2.82
2023-03-01T08:39:50.326Z,4.01
2023-03-01T08:41:53.190Z,4.63
2023-03-01T08:43:59.741Z,4.08
2023-03-01T08:46:02.742Z,4.83
2023-03-01T08:48:07.048Z,4.09
2023-03-01T08:50:11.061Z,3.74
2023-03-01T08:52:13.744Z,3.55
2023-03-01T08:54:18.994Z,4.30
2023-03-01T08:56:22.603Z,4.64
2023-03-01T08:58:25.274Z,3.94
2023-03-01T09:00:29.000Z,4.83
2023-03-01T09:02:31.737Z,3.79
2023-03-01T09:04:35.837Z,5.00
2023-03-01T09:06:38.948Z,6.75
2023-03-01T09:08:44.029Z,5.11
2023-03-01T09:10:46.977Z,4.03
2023-03-01T09:12:49.704Z,3.95
2023-03-01T09:14:52.448Z,5.61
2023-03-01T09:16:55.230Z,5.19
2023-03-01T09:18:57.928Z,5.43
2023-03-01T09:21:08.323Z,5.34
2023-03-01T09:23:11.035Z,6.13
2023-03-01T09:25:13.698Z,5.18
2023-03-01T09:27:19.569Z,6.19
2023-03-01T09:29:22.393Z,6.71
2023-03-01T09:31:26.227Z,5.49
2023-03-01T09:33:29.614Z,6.93
2023-03-01T09:35:32.372Z,7.20
2023-03-01T09:37:38.303Z,7.78
2023-03-01T09:39:40.944Z,8.27
2023-03-01T09:41:50.863Z,9.98
2023-03-01T09:43:58.863Z,8.19
2023-03-01T09:46:06.624Z,7.97
2023-03-01T09:48:17.579Z,6.83
2023-03-01T09:50:22.029Z,6.17
2023-03-01T09:52:30.634Z,7.20
2023-03-01T09:54:34.689Z,7.55
2023-03-01T09:56:42.169Z,6.05
2023-03-01T09:58:53.498Z,6.35
2023-03-01T10:00:59.995Z,5.91
2023-03-01T10:03:11.583Z,8.90
2023-03-01T10:05:45.597Z,7.70
2023-03-01T10:07:56.725Z,7.93
2023-03-01T10:10:02.174Z,7.02
2023-03-01T10:12:10.221Z,7.41
2023-03-01T10:14:29.700Z,7.13
2023-03-01T10:16:43.757Z,6.26
2023-03-01T10:18:51.737Z,6.18
2023-03-01T10:20:56.888Z,7.19
2023-03-01T10:22:59.621Z,7.96
2023-03-01T10:25:05.625Z,7.57
2023-03-01T10:27:14.895Z,5.73
2023-03-01T10:29:17.901Z,7.57
2023-03-01T10:31:29.246Z,7.44
2023-03-01T10:33:34.890Z,7.51
2023-03-01T10:35:37.833Z,7.73
2023-03-01T10:37:58.378Z,7.42
2023-03-01T10:40:09.133Z,6.85
2023-03-01T10:42:24.726Z,8.84
2023-03-01T10:44:46.230Z,7.56
2023-03-01T10:47:01.456Z,6.11
2023-03-01T10:49:14.016Z,6.55
2023-03-01T10:51:21.165Z,7.30
2023-03-01T10:53:27.932Z,7.11
2023-03-01T10:55:36.824Z,8.01
2023-03-01T10:57:42.864Z,5.93
2023-03-01T10:59:45.848Z,5.49
2023-03-01T11:02:07.034Z,5.68
2023-03-01T11:04:17.138Z,5.55
2023-03-01T11:06:24.137Z,5.29
2023-03-01T11:08:39.539Z,5.08
2023-03-01T11:10:43.663Z,5.21
2023-03-01T11:12:46.352Z,5.12
2023-03-01T11:14:50.282Z,4.97
2023-03-01T11:17:01.064Z,5.26
2023-03-01T11:19:19.118Z,5.53
2023-03-01T11:21:21.999Z,5.71
2023-03-01T11:23:25.920Z,4.90
2023-03-01T11:25:33.692Z,4.81
2023-03-01T11:27:43.860Z,5.06
2023-03-01T11:29:52.107Z,5.54
2023-03-01T11:31:59.658Z,4.88
2023-03-01T11:34:12.292Z,4.99
2023-03-01T11:36:30.743Z,5.21
2023-03-01T11:38:37.564Z,5.38
2023-03-01T11:40:43.789Z,4.40
2023-03-01T11:42:57.961Z,5.08
2023-03-01T11:45:03.954Z,5.02
2023-03-01T11:47:26.226Z,4.94
2023-03-01T11:49:48.468Z,4.78
2023-03-01T11:51:59.604Z,5.17
2023-03-01T11:54:11.827Z,5.58
2023-03-01T11:56:30.743Z,5.27
2023-03-01T11:58:53.579Z,5.64
2023-03-01T12:01:10.099Z,5.67
2023-03-01T12:03:29.722Z,5.95
2023-03-01T12:05:54.398Z,6.05
2023-03-01T12:08:03.612Z,5.89
2023-03-01T12:10:25.367Z,5.78
2023-03-01T12:12:39.619Z,5.82
2023-03-01T12:15:02.080Z,5.99
2023-03-01T12:17:16.693Z,5.97
2023-03-01T12:19:35.214Z,6.01
2023-03-01T12:21:55.491Z,6.12
2023-03-01T12:24:17.198Z,6.26
2023-03-01T12:26:33.218Z,6.51
2023-03-01T12:29:12.899Z,6.86
2023-03-01T12:31:46.305Z,6.33
2023-03-01T12:33:59.110Z,6.47
2023-03-01T12:36:12.422Z,6.90
2023-03-01T12:38:31.900Z,6.64
2023-03-01T12:40:59.514Z,7.35
2023-03-01T12:43:16.226Z,7.31
2023-03-01T12:45:34.551Z,6.98
2023-03-01T12:48:00.355Z,6.83
2023-03-01T12:50:08.192Z,7.50
2023-03-01T12:52:17.121Z,7.36
2023-03-01T12:54:28.042Z,6.66
2023-03-01T12:56:33.339Z,6.95
2023-03-01T12:58:49.678Z,7.83
2023-03-01T13:01:07.665Z,6.94
2023-03-01T13:03:25.159Z,6.93
2023-03-01T13:05:41.506Z,7.75
2023-03-01T13:07:52.832Z,7.74
2023-03-01T13:10:16.750Z,7.20
2023-03-01T13:12:45.579Z,7.11
2023-03-01T13:14:48.497Z,7.35
2023-03-01T13:16:52.192Z,7.76
2023-03-01T13:19:08.885Z,7.34
2023-03-01T13:21:11.628Z,7.91
2023-03-01T13:23:26.397Z,7.67
2023-03-01T13:25:34.703Z,7.65
2023-03-01T13:27:46.413Z,7.68
2023-03-01T13:29:50.833Z,7.29
2023-03-01T13:32:04.586Z,7.27
2023-03-01T13:34:42.432Z,7.25
2023-03-01T13:36:49.642Z,7.82
2023-03-01T13:38:59.103Z,7.86
2023-03-01T13:41:02.351Z,7.92
2023-03-01T13:43:30.517Z,8.29
2023-03-01T13:45:40.578Z,8.33
2023-03-01T13:47:44.852Z,7.74
2023-03-01T13:49:52.565Z,8.06
2023-03-01T13:51:55.310Z,8.16
2023-03-01T13:54:00.404Z,8.49
2023-03-01T13:56:08.815Z,7.96
2023-03-01T13:58:22.993Z,8.54
2023-03-01T14:00:38.278Z,8.00
2023-03-01T14:02:42.447Z,7.74
2023-03-01T14:04:45.176Z,7.67
2023-03-01T14:06:49.259Z,7.52
2023-03-01T14:09:03.432Z,7.18
2023-03-01T14:11:41.628Z,7.40
2023-03-01T14:13:56.892Z,7.20
2023-03-01T14:16:14.197Z,7.29
2023-03-01T14:18:24.815Z,7.25
2023-03-01T14:20:29.810Z,7.00
2023-03-01T14:22:36.558Z,7.63
2023-03-01T14:24:40.537Z,7.34
2023-03-01T14:26:43.871Z,6.92
2023-03-01T14:28:46.691Z,7.22
2023-03-01T14:30:51.451Z,6.49
2023-03-01T14:32:55.925Z,6.69
2023-03-01T14:35:00.189Z,7.01
2023-03-01T14:37:12.506Z,7.42
2023-03-01T14:39:22.068Z,7.05
2023-03-01T14:41:27.960Z,7.37
2023-03-01T14:43:32.461Z,7.28
2023-03-01T14:45:35.162Z,7.04
2023-03-01T14:47:39.201Z,6.94
2023-03-01T14:49:42.460Z,7.23
2023-03-01T14:51:52.375Z,7.57
2023-03-01T14:53:55.856Z,7.62
2023-03-01T14:56:04.028Z,7.22
2023-03-01T14:58:11.474Z,7.22
2023-03-01T15:00:21.737Z,7.16
2023-03-01T15:02:27.317Z,6.91
2023-03-01T15:04:32.060Z,6.98
2023-03-01T15:06:34.900Z,6.97
2023-03-01T15:08:39.007Z,6.96
2023-03-01T15:10:44.490Z,6.90
2023-03-01T15:12:48.607Z,6.97
2023-03-01T15:15:03.251Z,6.90
2023-03-01T15:17:07.993Z,7.03
2023-03-01T15:19:20.165Z,7.18
2023-03-01T15:21:26.447Z,6.96
2023-03-01T15:23:31.988Z,7.31
2023-03-01T15:25:35.632Z,6.96
2023-03-01T15:27:43.130Z,7.02
2023-03-01T15:29:51.976Z,7.14
2023-03-01T15:32:00.465Z,7.11
2023-03-01T15:34:12.118Z,7.00
2023-03-01T15:36:39.478Z,6.94
2023-03-01T15:38:55.297Z,6.97
2023-03-01T15:40:59.734Z,6.90
2023-03-01T15:43:04.509Z,6.94
2023-03-01T15:45:13.129Z,6.88
2023-03-01T15:47:30.997Z,6.83
2023-03-01T15:49:53.945Z,6.75
2023-03-01T15:51:57.832Z,6.77
2023-03-01T15:54:02.923Z,6.69
2023-03-01T15:56:08.373Z,6.73
2023-03-01T15:58:15.491Z,6.62
2023-03-01T16:00:20.657Z,6.48
2023-03-01T16:02:24.417Z,6.46
2023-03-01T16:04:27.165Z,6.50
2023-03-01T16:06:30.023Z,6.61
2023-03-01T16:08:32.892Z,6.44
2023-03-01T16:10:36.939Z,6.28
2023-03-01T16:12:40.127Z,6.26
2023-03-01T16:14:42.866Z,6.26
2023-03-01T16:16:49.013Z,6.09
2023-03-01T16:18:54.296Z,6.03
2023-03-01T16:20:57.978Z,6.04
2023-03-01T16:23:02.009Z,6.00
2023-03-01T16:25:05.095Z,5.98
2023-03-01T16:27:08.000Z,5.89
2023-03-01T16:29:10.771Z,5.91
2023-03-01T16:31:13.929Z,5.87
2023-03-01T16:33:26.549Z,5.88
2023-03-01T16:35:35.650Z,5.69
2023-03-01T16:37:38.964Z,5.64
2023-03-01T16:39:41.602Z,5.63
2023-03-01T16:41:44.235Z,5.63
2023-03-01T16:43:48.552Z,5.60
2023-03-01T16:45:51.536Z,5.52
2023-03-01T16:47:56.029Z,5.56
2023-03-01T16:50:00.330Z,5.52
2023-03-01T16:52:03.078Z,5.52
2023-03-01T16:54:05.893Z,5.50
2023-03-01T16:56:10.919Z,5.41
2023-03-01T16:58:13.646Z,5.45
2023-03-01T17:00:18.711Z,5.35
2023-03-01T17:02:22.035Z,5.37
2023-03-01T17:04:24.774Z,5.36
2023-03-01T17:06:28.825Z,5.40
2023-03-01T17:08:31.688Z,5.30
2023-03-01T17:10:35.342Z,5.31
2023-03-01T17:12:38.073Z,5.26
2023-03-01T17:14:42.355Z,5.21
2023-03-01T17:16:46.038Z,5.24
2023-03-01T17:18:49.202Z,5.16
2023-03-01T17:20:51.927Z,5.11
2023-03-01T17:22:56.001Z,5.02
2023-03-01T17:24:58.725Z,5.13
2023-03-01T17:27:01.548Z,5.15
2023-03-01T17:29:05.135Z,5.11
2023-03-01T17:31:08.972Z,5.14
2023-03-01T17:33:12.074Z,5.14
2023-03-01T17:35:14.830Z,5.03
2023-03-01T17:37:17.575Z,5.04
2023-03-01T17:39:25.764Z,5.07
2023-03-01T17:41:28.754Z,5.01
2023-03-01T17:43:34.382Z,4.96
2023-03-01T17:45:38.146Z,4.95
2023-03-01T17:47:40.909Z,4.91
2023-03-01T17:49:43.726Z,4.78
2023-03-01T17:51:46.564Z,4.73
2023-03-01T17:53:49.232Z,4.77
2023-03-01T17:56:01.324Z,4.59
2023-03-01T17:58:04.740Z,4.51
2023-03-01T18:00:11.682Z,4.45
2023-03-01T18:02:14.702Z,4.35
2023-03-01T18:04:18.425Z,4.34
2023-03-01T18:06:24.676Z,4.26
2023-03-01T18:08:27.407Z,4.34
2023-03-01T18:10:30.319Z,4.27
2023-03-01T18:12:34.555Z,4.19
2023-03-01T18:14:37.656Z,4.09
2023-03-01T18:16:40.781Z,4.01
2023-03-01T18:18:45.143Z,4.12
2023-03-01T18:20:56.895Z,4.05
2023-03-01T18:22:59.814Z,4.03
2023-03-01T18:25:02.676Z,4.06
2023-03-01T18:27:05.586Z,4.00
2023-03-01T18:29:10.635Z,4.06
2023-03-01T18:31:13.508Z,3.99
2023-03-01T18:33:16.254Z,3.92
2023-03-01T18:35:19.271Z,3.92
2023-03-01T18:37:22.105Z,3.91
2023-03-01T18:39:25.726Z,3.98
2023-03-01T18:41:30.518Z,3.91
2023-03-01T18:43:33.547Z,3.86
2023-03-01T18:45:37.743Z,3.86
2023-03-01T18:47:40.545Z,3.75
2023-03-01T18:49:43.889Z,3.79
2023-03-01T18:51:46.674Z,3.85
2023-03-01T18:53:49.427Z,3.79
2023-03-01T18:55:52.187Z,3.74
2023-03-01T18:57:55.883Z,3.78
2023-03-01T18:59:58.561Z,3.72
2023-03-01T19:02:02.818Z,3.75
2023-03-01T19:04:06.528Z,3.79
2023-03-01T19:06:09.455Z,3.74
2023-03-01T19:08:12.194Z,3.74
2023-03-01T19:10:14.836Z,3.78
2023-03-01T19:12:17.530Z,3.75
2023-03-01T19:14:20.226Z,3.78
2023-03-01T19:16:24.974Z,3.74
2023-03-01T19:18:29.072Z,3.73
2023-03-01T19:20:31.773Z,3.64
2023-03-01T19:22:34.438Z,3.49
2023-03-01T19:24:37.252Z,3.50
2023-03-01T19:26:41.715Z,3.47
2023-03-01T19:28:44.720Z,3.55
2023-03-01T19:30:47.442Z,3.62
2023-03-01T19:32:52.292Z,3.63
2023-03-01T19:34:56.288Z,3.60
2023-03-01T19:36:59.003Z,3.60
2023-03-01T19:39:02.883Z,3.59
2023-03-01T19:41:06.732Z,3.63
2023-03-01T19:43:09.429Z,3.60
2023-03-01T19:45:12.883Z,3.71
2023-03-01T19:47:16.279Z,3.71
2023-03-01T19:49:18.940Z,3.69
2023-03-01T19:51:23.077Z,3.71
2023-03-01T19:53:26.035Z,3.68
2023-03-01T19:55:28.712Z,3.71
2023-03-01T19:57:32.033Z,3.73
2023-03-01T19:59:34.821Z,3.69
2023-03-01T20:01:38.018Z,3.66
2023-03-01T20:03:40.870Z,3.67
2023-03-01T20:05:44.184Z,3.67
2023-03-01T20:07:48.274Z,3.76
2023-03-01T20:09:50.881Z,3.82
2023-03-01T20:11:53.594Z,3.76
2023-03-01T20:13:56.478Z,3.85
2023-03-01T20:15:59.219Z,3.82
2023-03-01T20:18:01.942Z,3.89
2023-03-01T20:20:05.279Z,3.95
2023-03-01T20:22:08.088Z,3.92
2023-03-01T20:24:12.156Z,3.93
2023-03-01T20:26:19.108Z,3.96
2023-03-01T20:28:21.628Z,4.00
2023-03-01T20:30:24.928Z,3.91
2023-03-01T20:32:27.946Z,3.85
2023-03-01T20:34:30.676Z,3.84
2023-03-01T20:36:34.122Z,3.76
2023-03-01T20:38:39.427Z,3.78
2023-03-01T20:40:43.468Z,3.83
2023-03-01T20:42:46.097Z,3.77
2023-03-01T20:44:48.770Z,3.68
2023-03-01T20:46:51.610Z,3.69
2023-03-01T20:48:54.803Z,3.69
2023-03-01T20:51:01.594Z,3.59
2023-03-01T20:53:04.156Z,3.60
2023-03-01T20:55:08.207Z,3.60
2023-03-01T20:57:12.272Z,3.56
2023-03-01T20:59:15.953Z,3.60
2023-03-01T21:01:20.996Z,3.54
2023-03-01T21:03:23.775Z,3.56
2023-03-01T21:05:26.446Z,3.53
2023-03-01T21:07:29.094Z,3.58
2023-03-01T21:09:31.726Z,3.51
2023-03-01T21:11:34.567Z,3.52
2023-03-01T21:13:38.671Z,3.50
2023-03-01T21:15:41.359Z,3.45
2023-03-01T21:17:44.051Z,3.40
2023-03-01T21:19:46.812Z,3.43
2023-03-01T21:21:49.523Z,3.39
2023-03-01T21:23:52.349Z,3.25
2023-03-01T21:26:03.043Z,3.33
2023-03-01T21:28:05.937Z,3.32
2023-03-01T21:30:11.644Z,3.33
2023-03-01T21:32:15.478Z,3.37
2023-03-01T21:34:18.292Z,3.32
2023-03-01T21:36:21.989Z,3.33
2023-03-01T21:38:24.746Z,3.18
2023-03-01T21:40:27.651Z,3.19
2023-03-01T21:42:31.954Z,3.27
2023-03-01T21:44:34.790Z,3.24
2023-03-01T21:46:40.296Z,3.16
2023-03-01T21:48:45.240Z,3.11
2023-03-01T21:50:55.767Z,2.99
2023-03-01T21:52:58.505Z,2.98
2023-03-01T21:55:02.984Z,3.03
2023-03-01T21:57:05.619Z,2.93
2023-03-01T21:59:09.555Z,2.96
2023-03-01T22:01:14.505Z,2.99
2023-03-01T22:03:18.732Z,2.88
2023-03-01T22:05:21.453Z,2.89
2023-03-01T22:07:24.540Z,2.87
2023-03-01T22:09:27.414Z,2.88
2023-03-01T22:11:30.485Z,2.87
2023-03-01T22:13:33.110Z,2.84
2023-03-01T22:15:35.842Z,2.89
2023-03-01T22:17:38.537Z,2.72
2023-03-01T22:19:42.596Z,2.75
2023-03-01T22:21:49.096Z,2.75
2023-03-01T22:23:52.989Z,2.72
2023-03-01T22:25:55.799Z,2.66
2023-03-01T22:27:58.644Z,2.64
2023-03-01T22:30:01.340Z,2.61
2023-03-01T22:32:04.823Z,2.57
2023-03-01T22:34:08.042Z,2.60
2023-03-01T22:36:12.326Z,2.64
2023-03-01T22:38:15.085Z,2.59
2023-03-01T22:40:17.934Z,2.54
2023-03-01T22:42:21.034Z,2.59
2023-03-01T22:44:24.694Z,2.58
2023-03-01T22:46:28.544Z,2.58
2023-03-01T22:48:31.254Z,2.55
2023-03-01T22:50:34.026Z,2.48
2023-03-01T22:52:39.639Z,2.57
2023-03-01T22:54:42.394Z,2.54
2023-03-01T22:56:46.423Z,2.50
2023-03-01T22:58:49.775Z,2.46
2023-03-01T23:00:52.501Z,2.41
2023-03-01T23:02:55.489Z,2.35
2023-03-01T23:04:58.284Z,2.34
2023-03-01T23:07:00.914Z,2.34
2023-03-01T23:09:06.786Z,2.30
2023-03-01T23:11:12.570Z,2.32
2023-03-01T23:13:15.324Z,2.23
2023-03-01T23:15:18.034Z,2.28
2023-03-01T23:17:20.808Z,2.31
2023-03-01T23:19:23.797Z,2.21
2023-03-01T23:21:27.024Z,2.23
2023-03-01T23:23:29.689Z,2.14
2023-03-01T23:25:33.730Z,2.13
2023-03-01T23:27:37.513Z,2.16
2023-03-01T23:29:40.291Z,2.10
2023-03-01T23:31:42.948Z,2.10
2023-03-01T23:33:46.888Z,2.10
2023-03-01T23:35:49.616Z,2.08
2023-03-01T23:37:52.376Z,2.16
2023-03-01T23:39:55.010Z,2.11
2023-03-01T23:41:59.090Z,2.06
2023-03-01T23:44:03.610Z,2.00
2023-03-01T23:46:06.847Z,1.95
2023-03-01T23:48:11.162Z,1.90
2023-03-01T23:50:13.922Z,1.89
2023-03-01T23:52:17.413Z,1.87
2023-03-01T23:54:21.841Z,1.86
2023-03-01T23:56:26.765Z,1.80
2023-03-01T23:58:30.974Z,1.78
